Time;durP1;ratioP1;P1;durP2;ratioP2;P2;SDS_P1;SDS_P2;PMS_P1;PMS_P2;Temp;Humidity;BMP_temperature;BMP_pressure;BME280_temperature;BME280_humidity;BME280_pressure;Samples;Min_cycle;Max_cycle;Signal;HPM_P1;HPM_P2
2021/12/13 00:01:52;;;;;;;12.10;9.93;;;;;;;;;;5053548;28;20922;-59
2021/12/13 00:04:25;;;;;;;13.30;10.30;;;;;;;;;;5055480;28;20433;-58
2021/12/13 00:06:53;;;;;;;13.23;10.73;;;;;;;;;;5055424;28;20400;-57
2021/12/13 00:09:21;;;;;;;11.87;10.50;;;;;;;;;;5055512;28;20565;-58
2021/12/13 00:11:49;;;;;;;15.17;11.10;;;;;;;;;;5055445;28;20411;-57
2021/12/13 00:14:29;;;;;;;12.27;10.97;;;;;;;;;;5055324;28;20874;-60
2021/12/13 00:17:00;;;;;;;12.87;10.40;;;;;;;;;;5055234;28;20450;-68
2021/12/13 00:19:31;;;;;;;14.23;11.07;;;;;;;;;;5054039;28;20676;-68
2021/12/13 00:22:02;;;;;;;12.63;9.47;;;;;;;;;;5055055;28;20446;-69
2021/12/13 00:24:30;;;;;;;11.43;9.40;;;;;;;;;;5055304;28;20772;-70
2021/12/13 00:27:16;;;;;;;11.70;10.50;;;;;;;;;;5054920;28;20414;-70
2021/12/13 00:30:01;;;;;;;14.20;10.47;;;;;;;;;;5054889;28;20462;-66
2021/12/13 00:33:05;;;;;;;14.47;11.20;;;;;;;;;;5054950;28;20391;-70
2021/12/13 00:35:36;;;;;;;13.27;10.70;;;;;;;;;;4993457;28;20472;-71
2021/12/13 00:38:04;;;;;;;15.50;11.23;;;;;;;;;;4993407;28;20765;-68
2021/12/13 00:40:34;;;;;;;13.03;10.60;;;;;;;;;;5025273;28;20412;-69
2021/12/13 00:43:02;;;;;;;14.30;11.33;;;;;;;;;;5054727;28;20502;-68
2021/12/13 00:45:30;;;;;;;14.43;11.03;;;;;;;;;;5054617;28;20411;-70
2021/12/13 00:47:58;;;;;;;17.70;12.30;;;;;;;;;;5054497;28;20407;-67
2021/12/13 00:50:35;;;;;;;13.17;10.83;;;;;;;;;;5054729;28;20506;-58
2021/12/13 00:53:02;;;;;;;16.27;11.80;;;;;;;;;;5053432;28;20420;-68
2021/12/13 00:55:30;;;;;;;14.70;10.80;;;;;;;;;;5054424;28;20493;-69
2021/12/13 00:58:10;;;;;;;13.20;10.57;;;;;;;;;;5054340;28;20404;-62
2021/12/13 01:00:39;;;;;;;12.30;10.60;;;;;;;;;;5054248;28;20545;-71
2021/12/13 01:03:12;;;;;;;12.27;10.77;;;;;;;;;;5054271;28;20422;-64
2021/12/13 01:05:41;;;;;;;15.20;11.27;;;;;;;;;;5054604;28;20406;-58
2021/12/13 01:08:25;;;;;;;15.13;10.87;;;;;;;;;;5054289;28;20399;-67
2021/12/13 01:10:51;;;;;;;14.80;11.93;;;;;;;;;;5053992;28;20475;-74
2021/12/13 01:13:22;;;;;;;11.90;10.40;;;;;;;;;;5053493;28;20407;-68
2021/12/13 01:15:54;;;;;;;15.07;11.27;;;;;;;;;;5054232;28;20916;-71
2021/12/13 01:18:32;;;;;;;13.80;10.80;;;;;;;;;;5054084;28;20410;-66
2021/12/13 01:21:31;;;;;;;15.90;11.60;;;;;;;;;;5053742;28;20461;-59
2021/12/13 01:24:05;;;;;;;13.60;11.20;;;;;;;;;;5052240;28;20416;-70
2021/12/13 01:26:38;;;;;;;13.33;11.00;;;;;;;;;;5053889;28;20454;-62
2021/12/13 01:29:07;;;;;;;14.37;11.60;;;;;;;;;;5053847;28;20466;-56
2021/12/13 01:31:35;;;;;;;16.40;11.80;;;;;;;;;;5053845;28;20407;-61
2021/12/13 01:34:03;;;;;;;15.40;11.43;;;;;;;;;;5053692;28;20550;-63
2021/12/13 01:36:37;;;;;;;13.50;11.03;;;;;;;;;;5053730;28;20403;-62
2021/12/13 01:39:09;;;;;;;13.63;11.43;;;;;;;;;;5053701;28;20412;-68
2021/12/13 01:41:47;;;;;;;16.40;12.20;;;;;;;;;;5053519;28;20422;-61
2021/12/13 01:44:15;;;;;;;14.70;11.60;;;;;;;;;;5053576;28;20502;-68
2021/12/13 01:46:43;;;;;;;12.37;10.60;;;;;;;;;;5053534;28;20411;-70
2021/12/13 01:49:10;;;;;;;15.00;11.30;;;;;;;;;;5053161;28;20513;-66
2021/12/13 01:51:37;;;;;;;15.30;11.97;;;;;;;;;;5053696;28;20430;-71
2021/12/13 01:54:08;;;;;;;12.93;10.83;;;;;;;;;;5053279;28;20410;-63
2021/12/13 01:56:54;;;;;;;15.77;11.83;;;;;;;;;;5053153;28;20415;-66
2021/12/13 01:59:43;;;;;;;15.00;11.20;;;;;;;;;;5053273;28;20419;-68
2021/12/13 02:02:19;;;;;;;12.80;10.20;;;;;;;;;;5053117;28;20411;-60
2021/12/13 02:04:46;;;;;;;15.03;11.63;;;;;;;;;;5053340;28;20752;-69
2021/12/13 02:07:13;;;;;;;14.10;11.10;;;;;;;;;;5053043;28;20410;-66
2021/12/13 02:09:41;;;;;;;14.77;11.20;;;;;;;;;;5052990;28;20455;-64
2021/12/13 02:12:11;;;;;;;12.87;10.83;;;;;;;;;;5053042;28;20754;-66
2021/12/13 02:14:41;;;;;;;12.37;10.80;;;;;;;;;;5052894;28;20407;-64
2021/12/13 02:17:12;;;;;;;14.53;11.37;;;;;;;;;;5052860;28;20411;-58
2021/12/13 02:19:50;;;;;;;19.53;11.33;;;;;;;;;;5052628;28;20936;-57
2021/12/13 02:22:22;;;;;;;12.80;10.67;;;;;;;;;;5052721;28;20780;-53
2021/12/13 02:24:49;;;;;;;12.67;10.83;;;;;;;;;;5051953;28;20549;-55
2021/12/13 02:27:20;;;;;;;13.60;11.03;;;;;;;;;;5052566;28;20418;-63
2021/12/13 02:29:47;;;;;;;14.10;11.00;;;;;;;;;;5052646;28;20615;-66
2021/12/13 02:32:13;;;;;;;12.87;10.63;;;;;;;;;;5052475;28;20415;-56
2021/12/13 02:34:41;;;;;;;13.70;11.20;;;;;;;;;;5052443;28;20565;-63
2021/12/13 02:37:08;;;;;;;14.43;11.13;;;;;;;;;;5052844;28;20564;-63
2021/12/13 02:39:39;;;;;;;13.53;11.03;;;;;;;;;;5052444;28;20811;-64
2021/12/13 02:42:07;;;;;;;15.73;10.97;;;;;;;;;;5052347;28;20741;-65
2021/12/13 02:44:38;;;;;;;13.30;10.73;;;;;;;;;;5052290;28;20416;-67
2021/12/13 02:47:14;;;;;;;13.30;10.90;;;;;;;;;;5052395;28;20415;-65
2021/12/13 02:49:40;;;;;;;13.23;11.00;;;;;;;;;;5052319;28;20895;-63
2021/12/13 02:52:07;;;;;;;13.23;10.70;;;;;;;;;;5052335;28;20441;-66
2021/12/13 02:54:37;;;;;;;13.70;11.10;;;;;;;;;;5052324;28;20414;-62
2021/12/13 02:57:03;;;;;;;14.60;10.73;;;;;;;;;;5050858;28;20416;-60
2021/12/13 02:59:30;;;;;;;13.80;10.50;;;;;;;;;;5052254;28;20439;-58
2021/12/13 03:02:02;;;;;;;13.17;10.53;;;;;;;;;;5052141;28;20431;-60
2021/12/13 03:04:30;;;;;;;15.20;10.60;;;;;;;;;;5052201;28;20760;-61
2021/12/13 03:06:59;;;;;;;12.37;10.63;;;;;;;;;;5052109;28;20404;-65
2021/12/13 03:09:26;;;;;;;14.87;11.47;;;;;;;;;;5052011;28;20506;-65
2021/12/13 03:11:53;;;;;;;12.50;10.53;;;;;;;;;;5051873;28;20408;-57
2021/12/13 03:14:24;;;;;;;13.67;10.40;;;;;;;;;;5052006;28;20510;-59
2021/12/13 03:16:52;;;;;;;12.67;10.30;;;;;;;;;;5051902;28;20454;-63
2021/12/13 03:19:18;;;;;;;11.80;10.10;;;;;;;;;;5051825;28;20956;-52
2021/12/13 03:21:47;;;;;;;12.10;9.87;;;;;;;;;;5051799;28;20451;-65
2021/12/13 03:24:16;;;;;;;12.90;10.10;;;;;;;;;;5051863;28;20446;-69
2021/12/13 03:26:45;;;;;;;11.37;9.60;;;;;;;;;;5051895;28;20427;-59
2021/12/13 03:29:19;;;;;;;12.63;9.80;;;;;;;;;;5051823;28;20459;-64
2021/12/13 03:31:50;;;;;;;10.70;9.60;;;;;;;;;;5052166;28;20505;-55
2021/12/13 03:34:19;;;;;;;14.50;10.70;;;;;;;;;;5051758;28;20400;-55
2021/12/13 03:36:44;;;;;;;13.30;10.03;;;;;;;;;;5054169;28;20427;-59
2021/12/13 03:39:14;;;;;;;12.30;9.93;;;;;;;;;;5055869;28;20403;-59
2021/12/13 03:41:42;;;;;;;11.67;9.87;;;;;;;;;;5055763;28;20860;-55
2021/12/13 03:44:13;;;;;;;11.70;9.40;;;;;;;;;;5055825;28;20457;-58
2021/12/13 03:46:41;;;;;;;13.10;9.80;;;;;;;;;;5055460;28;20781;-55
2021/12/13 03:49:09;;;;;;;12.93;10.03;;;;;;;;;;5055506;28;20508;-57
2021/12/13 03:51:37;;;;;;;13.53;10.40;;;;;;;;;;5055502;28;20497;-54
2021/12/13 03:54:04;;;;;;;13.63;11.30;;;;;;;;;;5054002;28;20411;-56
2021/12/13 03:56:36;;;;;;;13.73;10.53;;;;;;;;;;5055421;28;20422;-55
2021/12/13 03:59:05;;;;;;;13.10;10.30;;;;;;;;;;5055184;28;20407;-55
2021/12/13 04:01:36;;;;;;;13.47;10.60;;;;;;;;;;5055451;28;20983;-56
2021/12/13 04:04:03;;;;;;;12.30;10.20;;;;;;;;;;5055147;28;20410;-55
2021/12/13 04:06:29;;;;;;;13.00;10.60;;;;;;;;;;5055679;28;20452;-62
2021/12/13 04:08:57;;;;;;;14.70;11.53;;;;;;;;;;5053855;28;20816;-55
2021/12/13 04:11:24;;;;;;;16.90;11.00;;;;;;;;;;5055082;28;20416;-54
2021/12/13 04:13:53;;;;;;;13.73;11.00;;;;;;;;;;5054374;28;20407;-64
2021/12/13 04:16:30;;;;;;;13.97;10.50;;;;;;;;;;5053954;28;20423;-68
2021/12/13 04:19:08;;;;;;;12.13;10.17;;;;;;;;;;5055029;28;20407;-64
2021/12/13 04:21:37;;;;;;;13.57;10.60;;;;;;;;;;5055418;28;20753;-65
2021/12/13 04:24:05;;;;;;;15.20;11.03;;;;;;;;;;5054974;28;20456;-68
2021/12/13 04:26:36;;;;;;;15.10;10.67;;;;;;;;;;5054987;28;20443;-58
2021/12/13 04:29:03;;;;;;;18.07;11.17;;;;;;;;;;5054940;28;20935;-62
2021/12/13 04:31:35;;;;;;;14.87;11.60;;;;;;;;;;5055038;28;20429;-60
2021/12/13 04:34:02;;;;;;;16.27;12.17;;;;;;;;;;5054699;28;20415;-59
2021/12/13 04:36:28;;;;;;;16.60;11.73;;;;;;;;;;5054712;28;20860;-60
2021/12/13 04:39:06;;;;;;;14.63;11.23;;;;;;;;;;5055075;28;20515;-62
2021/12/13 04:41:32;;;;;;;15.33;11.80;;;;;;;;;;5054764;28;20412;-55
2021/12/13 04:44:08;;;;;;;14.53;11.13;;;;;;;;;;5054604;28;20825;-59
2021/12/13 04:46:35;;;;;;;15.20;11.80;;;;;;;;;;5054908;28;20181;-67
2021/12/13 04:49:04;;;;;;;18.47;12.80;;;;;;;;;;5053559;28;20966;-59
2021/12/13 04:51:37;;;;;;;16.57;12.20;;;;;;;;;;5054665;28;20418;-56
2021/12/13 04:54:05;;;;;;;15.20;12.47;;;;;;;;;;5054432;28;20510;-61
2021/12/13 04:56:31;;;;;;;19.63;13.10;;;;;;;;;;5054304;28;20407;-58
2021/12/13 04:58:59;;;;;;;17.70;12.77;;;;;;;;;;5054447;28;20412;-55
2021/12/13 05:01:25;;;;;;;17.70;12.53;;;;;;;;;;5054634;28;20415;-54
2021/12/13 05:03:53;;;;;;;18.33;12.27;;;;;;;;;;5054665;28;20408;-54
2021/12/13 05:06:20;;;;;;;18.30;12.40;;;;;;;;;;5054595;28;20461;-54
2021/12/13 05:08:48;;;;;;;19.07;13.00;;;;;;;;;;5052851;28;20892;-54
2021/12/13 05:11:14;;;;;;;20.30;14.10;;;;;;;;;;5052916;28;20445;-59
2021/12/13 05:13:48;;;;;;;20.63;12.83;;;;;;;;;;5054156;28;20415;-56
2021/12/13 05:16:14;;;;;;;18.67;13.23;;;;;;;;;;5054321;28;20426;-64
2021/12/13 05:18:44;;;;;;;21.10;14.40;;;;;;;;;;5054175;28;20757;-56
2021/12/13 05:21:12;;;;;;;20.50;13.60;;;;;;;;;;5053710;28;20863;-54
2021/12/13 05:24:00;;;;;;;18.90;13.40;;;;;;;;;;5053888;28;20892;-55
2021/12/13 05:26:37;;;;;;;18.70;12.57;;;;;;;;;;5054077;28;20446;-53
2021/12/13 05:29:07;;;;;;;19.37;13.00;;;;;;;;;;5053891;28;20512;-52
2021/12/13 05:31:34;;;;;;;19.53;13.73;;;;;;;;;;5053938;28;20421;-62
2021/12/13 05:34:05;;;;;;;19.00;12.70;;;;;;;;;;5053992;28;20499;-53
2021/12/13 05:36:32;;;;;;;19.50;13.07;;;;;;;;;;5053843;28;20504;-62
2021/12/13 05:39:10;;;;;;;20.60;13.33;;;;;;;;;;5053757;28;20892;-58
2021/12/13 05:41:37;;;;;;;22.30;13.90;;;;;;;;;;5054053;28;20823;-54
2021/12/13 05:44:05;;;;;;;20.80;14.10;;;;;;;;;;5053831;28;20412;-62
2021/12/13 05:46:43;;;;;;;23.10;14.33;;;;;;;;;;5053670;28;20412;-60
2021/12/13 05:49:11;;;;;;;23.67;14.00;;;;;;;;;;5053614;28;20477;-62
2021/12/13 05:51:41;;;;;;;24.57;14.70;;;;;;;;;;5053409;28;20420;-56
2021/12/13 05:54:07;;;;;;;22.20;14.50;;;;;;;;;;5053354;28;20396;-61
2021/12/13 05:56:39;;;;;;;22.70;14.93;;;;;;;;;;5053483;28;20419;-62
2021/12/13 05:59:10;;;;;;;23.30;14.93;;;;;;;;;;5053106;28;20184;-60
2021/12/13 06:01:56;;;;;;;22.53;14.50;;;;;;;;;;5053450;28;20963;-63
2021/12/13 06:04:33;;;;;;;23.87;15.13;;;;;;;;;;5022398;28;20963;-59
2021/12/13 06:07:00;;;;;;;23.40;14.53;;;;;;;;;;5051978;28;20892;-60
2021/12/13 06:09:41;;;;;;;24.07;14.50;;;;;;;;;;5053067;28;20465;-69
2021/12/13 06:12:09;;;;;;;24.60;15.10;;;;;;;;;;5052985;28;20498;-58
2021/12/13 06:14:35;;;;;;;22.70;14.70;;;;;;;;;;5052938;28;20740;-60
2021/12/13 06:17:01;;;;;;;23.27;15.10;;;;;;;;;;5053368;28;20412;-54
2021/12/13 06:19:32;;;;;;;23.77;15.00;;;;;;;;;;5052322;28;20956;-62
2021/12/13 06:22:33;;;;;;;24.10;15.47;;;;;;;;;;5051969;28;20896;-65
2021/12/13 06:25:02;;;;;;;20.70;13.50;;;;;;;;;;4990455;28;20413;-55
2021/12/13 06:27:30;;;;;;;24.10;15.07;;;;;;;;;;5040530;28;20424;-55
2021/12/13 06:30:07;;;;;;;19.57;13.63;;;;;;;;;;5051836;28;20985;-58
2021/12/13 06:32:39;;;;;;;23.90;14.80;;;;;;;;;;5051990;28;20403;-53
2021/12/13 06:35:23;;;;;;;25.17;16.00;;;;;;;;;;5052099;28;20408;-56
2021/12/13 06:37:49;;;;;;;25.30;15.97;;;;;;;;;;5052032;28;20400;-56
2021/12/13 06:40:15;;;;;;;26.20;16.40;;;;;;;;;;5051489;28;20757;-55
2021/12/13 06:42:41;;;;;;;23.20;14.97;;;;;;;;;;5051656;28;20461;-55
2021/12/13 06:45:28;;;;;;;27.13;15.07;;;;;;;;;;5051598;28;20407;-56
2021/12/13 06:47:56;;;;;;;27.03;16.37;;;;;;;;;;5051335;28;20430;-56
2021/12/13 06:50:24;;;;;;;25.10;16.53;;;;;;;;;;5051500;28;20801;-55
2021/12/13 06:52:50;;;;;;;26.80;15.97;;;;;;;;;;5051530;28;20487;-55
2021/12/13 06:55:17;;;;;;;25.80;15.97;;;;;;;;;;5051606;28;20415;-58
2021/12/13 06:57:48;;;;;;;26.00;15.13;;;;;;;;;;5051651;28;20462;-56
2021/12/13 07:00:17;;;;;;;23.13;15.77;;;;;;;;;;5051710;28;20426;-56
2021/12/13 07:02:48;;;;;;;25.20;15.63;;;;;;;;;;5051275;28;20433;-56
2021/12/13 07:05:23;;;;;;;30.47;16.57;;;;;;;;;;5051587;28;20737;-54
2021/12/13 07:07:53;;;;;;;25.10;15.30;;;;;;;;;;5051765;28;20419;-55
2021/12/13 07:10:25;;;;;;;28.83;17.40;;;;;;;;;;5049845;28;20861;-60
2021/12/13 07:12:57;;;;;;;30.90;16.67;;;;;;;;;;5052185;28;20439;-59
2021/12/13 07:15:55;;;;;;;29.40;17.53;;;;;;;;;;5052356;28;20422;-55
2021/12/13 07:18:30;;;;;;;29.57;16.00;;;;;;;;;;5019061;28;20495;-63
2021/12/13 07:20:56;;;;;;;27.30;16.20;;;;;;;;;;5051958;28;20462;-59
2021/12/13 07:23:23;;;;;;;26.53;16.57;;;;;;;;;;5050904;28;20501;-56
2021/12/13 07:25:50;;;;;;;29.37;17.90;;;;;;;;;;5051825;28;20888;-60
2021/12/13 07:28:28;;;;;;;29.33;16.43;;;;;;;;;;5051998;28;20403;-56
2021/12/13 07:30:54;;;;;;;31.47;16.87;;;;;;;;;;5050653;28;20994;-61
2021/12/13 07:33:32;;;;;;;28.10;17.23;;;;;;;;;;5051950;28;20404;-58
2021/12/13 07:35:58;;;;;;;36.70;18.97;;;;;;;;;;5051958;28;20514;-54
2021/12/13 07:38:26;;;;;;;29.50;16.87;;;;;;;;;;5051924;28;20418;-58
2021/12/13 07:40:57;;;;;;;30.03;17.50;;;;;;;;;;5051947;28;20462;-59
2021/12/13 07:43:23;;;;;;;30.67;17.90;;;;;;;;;;5050440;28;21017;-56
2021/12/13 07:45:55;;;;;;;29.00;17.50;;;;;;;;;;5050256;28;20424;-55
2021/12/13 07:48:24;;;;;;;29.00;17.13;;;;;;;;;;5050550;28;20514;-59
2021/12/13 07:51:06;;;;;;;33.63;18.53;;;;;;;;;;5050262;28;20482;-54
2021/12/13 07:53:58;;;;;;;33.43;17.53;;;;;;;;;;5051066;28;20439;-59
2021/12/13 07:56:24;;;;;;;31.67;17.20;;;;;;;;;;5028694;28;20807;-66
2021/12/13 07:58:58;;;;;;;31.17;18.10;;;;;;;;;;5051681;28;20410;-55
2021/12/13 08:01:26;;;;;;;29.80;17.70;;;;;;;;;;5050574;28;20422;-60
2021/12/13 08:03:57;;;;;;;31.10;18.07;;;;;;;;;;5051542;28;20407;-55
2021/12/13 08:06:34;;;;;;;36.03;19.27;;;;;;;;;;5051504;28;20489;-53
2021/12/13 08:09:03;;;;;;;32.63;18.80;;;;;;;;;;5051406;28;20861;-56
2021/12/13 08:11:35;;;;;;;30.80;18.47;;;;;;;;;;5051481;28;20472;-56
2021/12/13 08:14:01;;;;;;;30.40;17.30;;;;;;;;;;5051512;28;20422;-56
2021/12/13 08:16:35;;;;;;;31.33;18.57;;;;;;;;;;5051452;28;20399;-57
2021/12/13 08:19:07;;;;;;;28.00;18.10;;;;;;;;;;5050010;28;20434;-56
2021/12/13 08:21:37;;;;;;;30.80;18.30;;;;;;;;;;5051635;28;20403;-61
2021/12/13 08:24:03;;;;;;;29.80;16.77;;;;;;;;;;5055234;28;20505;-60
2021/12/13 08:26:31;;;;;;;30.97;18.20;;;;;;;;;;5055422;28;20408;-57
2021/12/13 08:28:59;;;;;;;32.47;17.23;;;;;;;;;;5055016;28;20919;-60
2021/12/13 08:31:30;;;;;;;31.50;18.03;;;;;;;;;;5054040;28;20427;-58
2021/12/13 08:33:58;;;;;;;31.50;17.77;;;;;;;;;;5058331;28;20495;-61
2021/12/13 08:36:24;;;;;;;35.70;19.50;;;;;;;;;;5059969;28;20973;-58
2021/12/13 08:38:50;;;;;;;32.47;19.23;;;;;;;;;;5051664;28;20487;-59
2021/12/13 08:41:16;;;;;;;31.70;18.00;;;;;;;;;;5052733;28;20576;-54
2021/12/13 08:43:51;;;;;;;32.10;17.93;;;;;;;;;;5051470;28;20779;-56
2021/12/13 08:46:35;;;;;;;29.53;18.70;;;;;;;;;;5052752;28;20415;-57
2021/12/13 08:49:11;;;;;;;29.73;18.10;;;;;;;;;;5053181;28;20503;-56
2021/12/13 08:51:37;;;;;;;32.17;18.33;;;;;;;;;;5052111;28;20507;-61
2021/12/13 08:54:12;;;;;;;35.40;20.10;;;;;;;;;;5052159;28;20742;-58
2021/12/13 08:56:43;;;;;;;30.10;18.57;;;;;;;;;;5052241;28;20399;-58
2021/12/13 08:59:20;;;;;;;32.27;19.83;;;;;;;;;;5051807;28;20756;-57
2021/12/13 09:02:03;;;;;;;39.07;19.30;;;;;;;;;;5051611;28;20411;-60
2021/12/13 09:04:35;;;;;;;30.80;18.37;;;;;;;;;;5051375;28;20965;-64
2021/12/13 09:07:03;;;;;;;35.40;20.07;;;;;;;;;;5050521;28;20764;-63
2021/12/13 09:09:29;;;;;;;31.70;20.00;;;;;;;;;;5051369;28;20867;-60
2021/12/13 09:12:00;;;;;;;32.57;20.37;;;;;;;;;;5051389;28;20477;-64
2021/12/13 09:14:36;;;;;;;32.00;18.27;;;;;;;;;;5051178;28;20480;-59
2021/12/13 09:17:12;;;;;;;33.37;19.13;;;;;;;;;;5051012;28;20911;-55
2021/12/13 09:19:41;;;;;;;31.00;18.33;;;;;;;;;;5050967;28;20473;-58
2021/12/13 09:22:13;;;;;;;34.83;19.77;;;;;;;;;;5051468;28;20469;-56
2021/12/13 09:24:51;;;;;;;32.57;18.87;;;;;;;;;;5051011;28;20486;-57
2021/12/13 09:27:25;;;;;;;29.73;18.80;;;;;;;;;;5051859;28;20493;-57
2021/12/13 09:30:17;;;;;;;30.80;19.03;;;;;;;;;;5050203;28;20471;-56
2021/12/13 09:32:46;;;;;;;29.97;19.17;;;;;;;;;;5035448;28;20412;-58
2021/12/13 09:35:19;;;;;;;28.60;18.73;;;;;;;;;;5050974;28;20411;-56
2021/12/13 09:37:45;;;;;;;30.70;18.33;;;;;;;;;;5051643;28;20449;-60
2021/12/13 09:40:11;;;;;;;31.60;19.63;;;;;;;;;;5055345;28;20415;-54
2021/12/13 09:42:47;;;;;;;34.20;20.30;;;;;;;;;;5050729;28;20419;-55
2021/12/13 09:45:14;;;;;;;33.37;18.40;;;;;;;;;;5051437;28;20832;-56
2021/12/13 09:47:44;;;;;;;32.80;18.67;;;;;;;;;;5051182;28;20444;-56
2021/12/13 09:50:18;;;;;;;40.20;18.77;;;;;;;;;;5051531;28;20561;-56
2021/12/13 09:52:49;;;;;;;33.90;20.53;;;;;;;;;;5050981;28;20418;-61
2021/12/13 09:55:22;;;;;;;33.70;19.90;;;;;;;;;;5051066;28;20787;-62
2021/12/13 09:58:02;;;;;;;33.80;20.20;;;;;;;;;;5051510;28;20920;-56
2021/12/13 10:00:34;;;;;;;36.50;18.90;;;;;;;;;;5049312;28;20507;-55
2021/12/13 10:03:04;;;;;;;34.53;20.40;;;;;;;;;;5050887;28;20416;-56
2021/12/13 10:05:32;;;;;;;31.73;19.53;;;;;;;;;;5051435;28;20428;-55
2021/12/13 10:08:01;;;;;;;35.20;20.13;;;;;;;;;;5050702;28;20454;-64
2021/12/13 10:10:39;;;;;;;33.23;20.23;;;;;;;;;;5050607;28;20563;-56
2021/12/13 10:13:08;;;;;;;37.87;19.07;;;;;;;;;;5050776;28;20490;-54
2021/12/13 10:15:36;;;;;;;32.23;18.80;;;;;;;;;;5050228;28;20408;-54
2021/12/13 10:18:05;;;;;;;34.33;19.23;;;;;;;;;;5050610;28;20412;-54
2021/12/13 10:20:34;;;;;;;32.57;18.07;;;;;;;;;;5049988;28;20460;-54
2021/12/13 10:23:00;;;;;;;28.40;17.93;;;;;;;;;;5050103;28;20418;-60
2021/12/13 10:25:34;;;;;;;34.60;19.07;;;;;;;;;;5050577;28;20418;-58
2021/12/13 10:28:00;;;;;;;36.03;19.83;;;;;;;;;;5050574;28;20503;-58
2021/12/13 10:30:29;;;;;;;34.23;20.10;;;;;;;;;;5050699;28;20827;-53
2021/12/13 10:32:55;;;;;;;31.83;19.80;;;;;;;;;;5050339;28;20966;-53
2021/12/13 10:35:24;;;;;;;33.00;18.87;;;;;;;;;;5050167;28;20852;-55
2021/12/13 10:37:53;;;;;;;30.77;17.27;;;;;;;;;;5049752;28;20420;-55
2021/12/13 10:40:27;;;;;;;37.03;18.97;;;;;;;;;;5052151;28;20419;-53
2021/12/13 10:42:56;;;;;;;34.80;19.90;;;;;;;;;;5049845;28;20433;-56
2021/12/13 10:45:27;;;;;;;34.80;20.10;;;;;;;;;;5049270;28;20407;-53
2021/12/13 10:47:55;;;;;;;35.03;19.57;;;;;;;;;;5049760;28;20412;-54
2021/12/13 10:50:27;;;;;;;36.27;21.17;;;;;;;;;;5050211;28;20816;-54
2021/12/13 10:52:55;;;;;;;33.97;20.90;;;;;;;;;;5049989;28;20412;-55
2021/12/13 10:55:26;;;;;;;36.47;20.77;;;;;;;;;;5048311;28;20569;-59
2021/12/13 10:57:53;;;;;;;34.33;20.30;;;;;;;;;;5049554;28;20447;-59
2021/12/13 11:00:22;;;;;;;38.87;21.60;;;;;;;;;;5049609;28;20415;-56
2021/12/13 11:02:52;;;;;;;41.57;23.27;;;;;;;;;;5049761;28;20422;-56
2021/12/13 11:05:19;;;;;;;42.33;23.10;;;;;;;;;;5049588;28;20423;-58
2021/12/13 11:07:46;;;;;;;36.80;21.33;;;;;;;;;;5049619;28;20498;-58
2021/12/13 11:10:15;;;;;;;41.40;22.73;;;;;;;;;;5049572;28;20460;-62
2021/12/13 11:12:43;;;;;;;40.60;22.73;;;;;;;;;;5049435;28;20411;-59
2021/12/13 11:15:13;;;;;;;37.30;21.97;;;;;;;;;;5048473;28;20446;-65
2021/12/13 11:17:40;;;;;;;38.00;21.63;;;;;;;;;;5049825;28;20414;-56
2021/12/13 11:20:15;;;;;;;35.87;21.77;;;;;;;;;;5047881;28;20455;-55
2021/12/13 11:22:44;;;;;;;33.97;20.10;;;;;;;;;;5049252;28;20919;-56
2021/12/13 11:25:12;;;;;;;34.27;20.73;;;;;;;;;;5049367;28;20411;-62
2021/12/13 11:27:39;;;;;;;33.93;20.80;;;;;;;;;;5049262;28;20407;-62
2021/12/13 11:30:08;;;;;;;31.23;19.27;;;;;;;;;;5047797;28;20998;-57
2021/12/13 11:32:38;;;;;;;33.83;18.67;;;;;;;;;;5048946;28;20784;-65
2021/12/13 11:35:06;;;;;;;30.73;19.07;;;;;;;;;;5049162;28;20443;-59
2021/12/13 11:37:51;;;;;;;35.80;18.40;;;;;;;;;;5049355;28;20920;-58
2021/12/13 11:40:20;;;;;;;28.93;17.63;;;;;;;;;;5053166;28;20454;-62
2021/12/13 11:42:54;;;;;;;27.70;18.97;;;;;;;;;;5049760;28;20404;-59
2021/12/13 11:45:28;;;;;;;30.23;17.13;;;;;;;;;;5049105;28;20991;-57
2021/12/13 11:48:06;;;;;;;28.53;18.40;;;;;;;;;;5049391;28;20412;-59
2021/12/13 11:50:51;;;;;;;27.63;18.07;;;;;;;;;;5048967;28;20516;-65
2021/12/13 11:53:18;;;;;;;27.53;17.43;;;;;;;;;;5049347;28;20433;-60
2021/12/13 11:55:44;;;;;;;22.30;13.10;;;;;;;;;;5048970;28;20440;-63
2021/12/13 11:58:29;;;;;;;24.37;14.50;;;;;;;;;;5051744;28;20438;-55
2021/12/13 12:01:14;;;;;;;24.20;16.40;;;;;;;;;;5051676;28;20426;-56
2021/12/13 12:03:52;;;;;;;23.80;14.10;;;;;;;;;;5053047;28;20399;-56
2021/12/13 12:06:37;;;;;;;24.77;14.27;;;;;;;;;;5053362;28;20415;-56
2021/12/13 12:09:22;;;;;;;24.30;14.83;;;;;;;;;;5052737;28;20509;-57
2021/12/13 12:11:54;;;;;;;27.10;15.13;;;;;;;;;;5052486;28;20415;-56
2021/12/13 12:14:24;;;;;;;23.70;15.20;;;;;;;;;;5052911;28;20884;-60
2021/12/13 12:16:52;;;;;;;23.97;15.60;;;;;;;;;;5051654;28;20426;-59
2021/12/13 12:19:22;;;;;;;29.43;13.50;;;;;;;;;;5052763;28;21047;-59
2021/12/13 12:21:54;;;;;;;24.60;15.90;;;;;;;;;;5052904;28;20841;-60
2021/12/13 12:24:31;;;;;;;23.97;14.77;;;;;;;;;;5052523;28;20426;-55
2021/12/13 12:27:01;;;;;;;29.63;15.17;;;;;;;;;;5052210;28;20399;-57
2021/12/13 12:29:29;;;;;;;19.43;10.87;;;;;;;;;;5052641;28;20987;-57
2021/12/13 12:32:00;;;;;;;16.97;10.80;;;;;;;;;;5052517;28;20812;-56
2021/12/13 12:34:27;;;;;;;21.10;14.30;;;;;;;;;;5052412;28;20415;-57
2021/12/13 12:36:59;;;;;;;24.40;13.00;;;;;;;;;;5052230;28;20420;-58
2021/12/13 12:39:44;;;;;;;27.93;14.67;;;;;;;;;;5055447;28;20438;-55
2021/12/13 12:42:25;;;;;;;22.10;14.40;;;;;;;;;;5052440;28;20492;-56
2021/12/13 12:44:54;;;;;;;18.13;12.23;;;;;;;;;;5052298;28;20419;-56
2021/12/13 12:47:35;;;;;;;23.50;15.57;;;;;;;;;;5050677;28;20391;-57
2021/12/13 12:50:11;;;;;;;21.07;12.83;;;;;;;;;;5051870;28;20475;-58
2021/12/13 12:52:52;;;;;;;22.50;12.23;;;;;;;;;;5050543;28;20419;-58
2021/12/13 12:55:21;;;;;;;27.47;15.17;;;;;;;;;;5052255;28;20415;-57
2021/12/13 12:57:47;;;;;;;26.70;13.53;;;;;;;;;;5052174;28;20415;-57
2021/12/13 13:00:14;;;;;;;24.40;15.53;;;;;;;;;;5051106;28;20477;-56
2021/12/13 13:02:40;;;;;;;22.70;14.53;;;;;;;;;;5052022;28;20784;-56
2021/12/13 13:05:09;;;;;;;25.03;14.43;;;;;;;;;;5051739;28;20419;-57
2021/12/13 13:07:37;;;;;;;27.20;16.07;;;;;;;;;;5051156;28;20972;-58
2021/12/13 13:10:25;;;;;;;24.40;15.17;;;;;;;;;;5050186;28;20586;-59
2021/12/13 13:12:52;;;;;;;22.33;14.43;;;;;;;;;;5049533;28;20415;-61
2021/12/13 13:15:23;;;;;;;23.87;14.17;;;;;;;;;;5052187;28;20462;-55
2021/12/13 13:17:51;;;;;;;25.10;15.60;;;;;;;;;;5052047;28;20411;-58
2021/12/13 13:20:22;;;;;;;19.73;14.17;;;;;;;;;;5052139;28;20462;-57
2021/12/13 13:22:49;;;;;;;24.23;15.70;;;;;;;;;;5034790;28;20717;-57
2021/12/13 13:25:18;;;;;;;23.67;14.80;;;;;;;;;;5052207;28;20443;-57
2021/12/13 13:27:44;;;;;;;22.13;14.70;;;;;;;;;;5051830;28;20508;-57
2021/12/13 13:30:13;;;;;;;25.93;14.00;;;;;;;;;;5051504;28;20469;-57
2021/12/13 13:32:39;;;;;;;27.13;14.77;;;;;;;;;;5051722;28;20411;-58
2021/12/13 13:35:06;;;;;;;23.40;15.00;;;;;;;;;;5051836;28;20442;-57
2021/12/13 13:37:33;;;;;;;19.70;13.67;;;;;;;;;;5051530;28;20412;-58
2021/12/13 13:40:07;;;;;;;22.30;13.70;;;;;;;;;;5051311;28;20434;-57
2021/12/13 13:42:35;;;;;;;21.87;14.20;;;;;;;;;;5051462;28;20550;-59
2021/12/13 13:45:03;;;;;;;24.23;14.30;;;;;;;;;;5051743;28;20491;-56
2021/12/13 13:47:32;;;;;;;20.90;14.43;;;;;;;;;;5051220;28;20503;-57
2021/12/13 13:49:59;;;;;;;23.27;15.00;;;;;;;;;;5051149;28;20463;-57
2021/12/13 13:52:27;;;;;;;22.17;15.07;;;;;;;;;;5051353;28;20403;-57
2021/12/13 13:54:59;;;;;;;26.43;15.20;;;;;;;;;;5049992;28;20426;-55
2021/12/13 13:57:27;;;;;;;21.80;14.90;;;;;;;;;;5050915;28;20429;-62
2021/12/13 13:59:54;;;;;;;23.33;14.67;;;;;;;;;;5051395;28;20412;-56
2021/12/13 14:02:24;;;;;;;25.33;16.83;;;;;;;;;;5051323;28;20503;-55
2021/12/13 14:04:59;;;;;;;24.90;16.07;;;;;;;;;;5051328;28;20811;-57
2021/12/13 14:07:26;;;;;;;25.23;16.90;;;;;;;;;;5051288;28;20395;-54
2021/12/13 14:09:54;;;;;;;25.20;16.77;;;;;;;;;;5051230;28;20458;-55
2021/12/13 14:12:32;;;;;;;23.90;16.40;;;;;;;;;;5050942;28;20503;-60
2021/12/13 14:15:01;;;;;;;27.97;16.00;;;;;;;;;;5049703;28;20419;-57
2021/12/13 14:17:35;;;;;;;24.80;16.20;;;;;;;;;;5051097;28;20404;-55
2021/12/13 14:20:14;;;;;;;22.40;15.50;;;;;;;;;;5050351;28;20459;-56
2021/12/13 14:22:40;;;;;;;32.73;16.00;;;;;;;;;;5050471;28;20403;-55
2021/12/13 14:25:07;;;;;;;24.93;15.97;;;;;;;;;;5049296;28;20416;-57
2021/12/13 14:27:33;;;;;;;23.30;15.07;;;;;;;;;;5050618;28;20423;-55
2021/12/13 14:30:16;;;;;;;24.63;16.50;;;;;;;;;;5050835;28;20553;-57
2021/12/13 14:32:42;;;;;;;22.40;15.33;;;;;;;;;;5050681;28;20408;-57
2021/12/13 14:35:16;;;;;;;21.93;14.50;;;;;;;;;;5050411;28;20424;-57
2021/12/13 14:37:42;;;;;;;24.30;15.80;;;;;;;;;;5050423;28;20411;-56
2021/12/13 14:40:09;;;;;;;25.30;14.60;;;;;;;;;;5051366;28;20431;-58
2021/12/13 14:42:35;;;;;;;23.00;14.67;;;;;;;;;;5050291;28;20407;-59